sensor_id;sensor_type;location;lat;lon;timestamp;temperature;humidity
5978;DHT22;3015;51.390;12.256;2022-08-19T00:00:08;19.90;99.90
5978;DHT22;3015;51.390;12.256;2022-08-19T00:02:35;19.80;99.90
5978;DHT22;3015;51.390;12.256;2022-08-19T00:05:02;19.80;99.90
5978;DHT22;3015;51.390;12.256;2022-08-19T00:07:28;19.80;99.90
5978;DHT22;3015;51.390;12.256;2022-08-19T00:09:54;19.90;99.90
5978;DHT22;3015;51.390;12.256;2022-08-19T00:12:20;19.90;99.90
5978;DHT22;3015;51.390;12.256;2022-08-19T00:14:45;19.80;99.90
5978;DHT22;3015;51.390;12.256;2022-08-19T00:17:11;19.80;99.90
5978;DHT22;3015;51.390;12.256;2022-08-19T00:19:38;19.80;99.90
5978;DHT22;3015;51.390;12.256;2022-08-19T00:22:04;19.90;99.90
5978;DHT22;3015;51.390;12.256;2022-08-19T00:24:31;19.80;99.90
5978;DHT22;3015;51.390;12.256;2022-08-19T00:26:57;19.90;99.90
5978;DHT22;3015;51.390;12.256;2022-08-19T00:29:25;20.00;99.90
5978;DHT22;3015;51.390;12.256;2022-08-19T00:31:51;20.00;99.90
5978;DHT22;3015;51.390;12.256;2022-08-19T00:34:22;19.90;99.90
5978;DHT22;3015;51.390;12.256;2022-08-19T00:36:48;19.90;99.90
5978;DHT22;3015;51.390;12.256;2022-08-19T00:39:15;19.90;99.90
5978;DHT22;3015;51.390;12.256;2022-08-19T00:41:42;19.90;99.90
5978;DHT22;3015;51.390;12.256;2022-08-19T00:44:16;19.90;99.90
5978;DHT22;3015;51.390;12.256;2022-08-19T00:46:44;19.90;99.90
5978;DHT22;3015;51.390;12.256;2022-08-19T00:51:45;19.80;99.90
5978;DHT22;3015;51.390;12.256;2022-08-19T00:54:12;19.70;99.90
5978;DHT22;3015;51.390;12.256;2022-08-19T00:56:38;19.80;99.90
5978;DHT22;3015;51.390;12.256;2022-08-19T00:59:05;20.00;99.90
5978;DHT22;3015;51.390;12.256;2022-08-19T01:01:36;20.00;99.90
5978;DHT22;3015;51.390;12.256;2022-08-19T01:04:02;19.90;99.90
5978;DHT22;3015;51.390;12.256;2022-08-19T01:06:27;19.90;99.90
5978;DHT22;3015;51.390;12.256;2022-08-19T01:08:56;19.80;99.90
5978;DHT22;3015;51.390;12.256;2022-08-19T01:11:22;19.80;99.90
5978;DHT22;3015;51.390;12.256;2022-08-19T01:13:48;19.80;99.90
5978;DHT22;3015;51.390;12.256;2022-08-19T01:16:14;19.80;99.90
5978;DHT22;3015;51.390;12.256;2022-08-19T01:18:42;19.80;99.90
5978;DHT22;3015;51.390;12.256;2022-08-19T01:21:22;19.80;99.90
5978;DHT22;3015;51.390;12.256;2022-08-19T01:23:49;19.80;99.90
5978;DHT22;3015;51.390;12.256;2022-08-19T01:26:19;19.90;99.90
5978;DHT22;3015;51.390;12.256;2022-08-19T01:28:47;19.80;99.90
5978;DHT22;3015;51.390;12.256;2022-08-19T01:31:17;19.70;99.90
5978;DHT22;3015;51.390;12.256;2022-08-19T01:33:44;19.80;99.90
5978;DHT22;3015;51.390;12.256;2022-08-19T01:36:35;19.70;99.90
5978;DHT22;3015;51.390;12.256;2022-08-19T01:39:04;19.80;99.90
5978;DHT22;3015;51.390;12.256;2022-08-19T01:41:31;19.80;99.90
5978;DHT22;3015;51.390;12.256;2022-08-19T01:43:56;19.80;99.90
5978;DHT22;3015;51.390;12.256;2022-08-19T01:46:22;19.80;99.90
5978;DHT22;3015;51.390;12.256;2022-08-19T01:48:48;19.80;99.90
5978;DHT22;3015;51.390;12.256;2022-08-19T01:51:14;19.70;99.90
5978;DHT22;3015;51.390;12.256;2022-08-19T01:53:41;19.70;1.00
5978;DHT22;3015;51.390;12.256;2022-08-19T01:56:07;19.80;99.90
5978;DHT22;3015;51.390;12.256;2022-08-19T01:58:42;19.80;99.90
5978;DHT22;3015;51.390;12.256;2022-08-19T02:01:11;19.80;99.90
5978;DHT22;3015;51.390;12.256;2022-08-19T02:03:38;19.80;1.00
5978;DHT22;3015;51.390;12.256;2022-08-19T02:06:04;19.70;99.90
5978;DHT22;3015;51.390;12.256;2022-08-19T02:08:33;19.70;99.90
5978;DHT22;3015;51.390;12.256;2022-08-19T02:10:59;19.70;1.00
5978;DHT22;3015;51.390;12.256;2022-08-19T02:13:26;19.70;1.00
5978;DHT22;3015;51.390;12.256;2022-08-19T02:15:51;19.80;1.00
5978;DHT22;3015;51.390;12.256;2022-08-19T02:18:17;19.80;99.90
5978;DHT22;3015;51.390;12.256;2022-08-19T02:20:44;19.80;1.00
5978;DHT22;3015;51.390;12.256;2022-08-19T02:23:11;19.80;1.00
5978;DHT22;3015;51.390;12.256;2022-08-19T02:25:38;19.80;1.00
5978;DHT22;3015;51.390;12.256;2022-08-19T02:28:04;19.70;99.90
5978;DHT22;3015;51.390;12.256;2022-08-19T02:30:30;19.70;1.00
5978;DHT22;3015;51.390;12.256;2022-08-19T02:32:56;19.70;1.00
5978;DHT22;3015;51.390;12.256;2022-08-19T02:35:22;19.60;1.00
5978;DHT22;3015;51.390;12.256;2022-08-19T02:37:48;19.70;1.00
5978;DHT22;3015;51.390;12.256;2022-08-19T02:40:32;19.70;1.00
5978;DHT22;3015;51.390;12.256;2022-08-19T02:43:01;19.60;1.00
5978;DHT22;3015;51.390;12.256;2022-08-19T02:45:31;19.70;1.00
5978;DHT22;3015;51.390;12.256;2022-08-19T02:47:56;19.70;1.00
5978;DHT22;3015;51.390;12.256;2022-08-19T02:50:22;19.70;1.00
5978;DHT22;3015;51.390;12.256;2022-08-19T02:52:48;19.60;1.00
5978;DHT22;3015;51.390;12.256;2022-08-19T02:55:13;19.70;1.00
5978;DHT22;3015;51.390;12.256;2022-08-19T02:57:40;19.70;1.00
5978;DHT22;3015;51.390;12.256;2022-08-19T03:00:08;19.70;1.00
5978;DHT22;3015;51.390;12.256;2022-08-19T03:02:37;19.70;1.00
5978;DHT22;3015;51.390;12.256;2022-08-19T03:05:04;19.70;1.00
5978;DHT22;3015;51.390;12.256;2022-08-19T03:07:30;19.70;1.00
5978;DHT22;3015;51.390;12.256;2022-08-19T03:09:56;19.70;1.00
5978;DHT22;3015;51.390;12.256;2022-08-19T03:12:21;19.70;1.00
5978;DHT22;3015;51.390;12.256;2022-08-19T03:14:47;19.70;1.00
5978;DHT22;3015;51.390;12.256;2022-08-19T03:17:13;19.80;1.00
5978;DHT22;3015;51.390;12.256;2022-08-19T03:19:39;19.80;1.00
5978;DHT22;3015;51.390;12.256;2022-08-19T03:22:05;19.80;1.00
5978;DHT22;3015;51.390;12.256;2022-08-19T03:24:31;19.80;1.00
5978;DHT22;3015;51.390;12.256;2022-08-19T03:26:57;19.80;1.00
5978;DHT22;3015;51.390;12.256;2022-08-19T03:29:28;19.80;1.00
5978;DHT22;3015;51.390;12.256;2022-08-19T03:31:54;19.70;1.00
5978;DHT22;3015;51.390;12.256;2022-08-19T03:34:25;19.80;1.00
5978;DHT22;3015;51.390;12.256;2022-08-19T03:36:53;19.80;1.00
5978;DHT22;3015;51.390;12.256;2022-08-19T03:39:19;19.70;1.00
5978;DHT22;3015;51.390;12.256;2022-08-19T03:41:47;19.60;1.00
5978;DHT22;3015;51.390;12.256;2022-08-19T03:44:19;19.80;1.00
5978;DHT22;3015;51.390;12.256;2022-08-19T03:46:54;19.70;1.00
5978;DHT22;3015;51.390;12.256;2022-08-19T03:49:26;19.70;1.00
5978;DHT22;3015;51.390;12.256;2022-08-19T03:51:53;19.70;1.00
5978;DHT22;3015;51.390;12.256;2022-08-19T03:54:21;19.70;1.00
5978;DHT22;3015;51.390;12.256;2022-08-19T03:56:49;19.70;1.00
5978;DHT22;3015;51.390;12.256;2022-08-19T03:59:26;19.70;1.00
5978;DHT22;3015;51.390;12.256;2022-08-19T04:01:56;19.70;1.00
5978;DHT22;3015;51.390;12.256;2022-08-19T04:04:22;19.80;1.00
5978;DHT22;3015;51.390;12.256;2022-08-19T04:06:48;19.80;1.00
5978;DHT22;3015;51.390;12.256;2022-08-19T04:09:14;19.80;1.00
5978;DHT22;3015;51.390;12.256;2022-08-19T04:11:49;19.70;1.00
5978;DHT22;3015;51.390;12.256;2022-08-19T04:14:18;19.70;1.00
5978;DHT22;3015;51.390;12.256;2022-08-19T04:16:44;19.70;1.00
5978;DHT22;3015;51.390;12.256;2022-08-19T04:19:11;19.80;1.00
5978;DHT22;3015;51.390;12.256;2022-08-19T04:21:36;19.90;1.00
5978;DHT22;3015;51.390;12.256;2022-08-19T04:24:03;19.90;1.00
5978;DHT22;3015;51.390;12.256;2022-08-19T04:26:33;19.90;1.00
5978;DHT22;3015;51.390;12.256;2022-08-19T04:29:01;19.90;1.00
5978;DHT22;3015;51.390;12.256;2022-08-19T04:31:29;19.90;1.00
5978;DHT22;3015;51.390;12.256;2022-08-19T04:33:59;19.90;99.90
5978;DHT22;3015;51.390;12.256;2022-08-19T04:36:31;19.90;99.90
5978;DHT22;3015;51.390;12.256;2022-08-19T04:38:59;19.90;1.00
5978;DHT22;3015;51.390;12.256;2022-08-19T04:41:25;19.80;99.90
5978;DHT22;3015;51.390;12.256;2022-08-19T04:44:10;19.80;1.00
5978;DHT22;3015;51.390;12.256;2022-08-19T04:46:36;19.80;1.00
5978;DHT22;3015;51.390;12.256;2022-08-19T04:49:03;19.90;1.00
5978;DHT22;3015;51.390;12.256;2022-08-19T04:51:34;19.90;1.00
5978;DHT22;3015;51.390;12.256;2022-08-19T04:54:02;20.00;1.00
5978;DHT22;3015;51.390;12.256;2022-08-19T04:56:28;20.00;1.00
5978;DHT22;3015;51.390;12.256;2022-08-19T04:58:55;20.00;1.00
5978;DHT22;3015;51.390;12.256;2022-08-19T05:01:25;20.00;99.90
5978;DHT22;3015;51.390;12.256;2022-08-19T05:03:51;20.00;99.90
5978;DHT22;3015;51.390;12.256;2022-08-19T05:06:19;20.00;1.00
5978;DHT22;3015;51.390;12.256;2022-08-19T05:08:46;20.00;99.90
5978;DHT22;3015;51.390;12.256;2022-08-19T05:11:14;20.00;1.00
5978;DHT22;3015;51.390;12.256;2022-08-19T05:13:42;20.00;1.00
5978;DHT22;3015;51.390;12.256;2022-08-19T05:16:10;20.00;1.00
5978;DHT22;3015;51.390;12.256;2022-08-19T05:18:36;20.10;99.90
5978;DHT22;3015;51.390;12.256;2022-08-19T05:21:20;20.00;99.90
5978;DHT22;3015;51.390;12.256;2022-08-19T05:24:06;20.00;94.40
5978;DHT22;3015;51.390;12.256;2022-08-19T05:26:45;20.00;99.90
5978;DHT22;3015;51.390;12.256;2022-08-19T05:29:13;20.00;99.90
5978;DHT22;3015;51.390;12.256;2022-08-19T05:31:40;20.00;99.90
5978;DHT22;3015;51.390;12.256;2022-08-19T05:34:06;20.00;99.90
5978;DHT22;3015;51.390;12.256;2022-08-19T05:36:37;20.00;99.90
5978;DHT22;3015;51.390;12.256;2022-08-19T05:39:07;19.90;1.00
5978;DHT22;3015;51.390;12.256;2022-08-19T05:41:33;20.00;99.90
5978;DHT22;3015;51.390;12.256;2022-08-19T05:44:04;19.90;99.90
5978;DHT22;3015;51.390;12.256;2022-08-19T05:46:35;20.00;99.90
5978;DHT22;3015;51.390;12.256;2022-08-19T05:49:03;20.00;99.90
5978;DHT22;3015;51.390;12.256;2022-08-19T05:51:29;20.00;99.90
5978;DHT22;3015;51.390;12.256;2022-08-19T05:53:55;20.10;32.00
5978;DHT22;3015;51.390;12.256;2022-08-19T05:56:20;20.10;1.00
5978;DHT22;3015;51.390;12.256;2022-08-19T05:58:46;20.00;1.00
5978;DHT22;3015;51.390;12.256;2022-08-19T06:01:16;20.00;99.90
5978;DHT22;3015;51.390;12.256;2022-08-19T06:03:42;20.00;1.00
5978;DHT22;3015;51.390;12.256;2022-08-19T06:06:10;20.00;99.90
5978;DHT22;3015;51.390;12.256;2022-08-19T06:08:37;20.00;1.00
5978;DHT22;3015;51.390;12.256;2022-08-19T06:11:20;20.00;99.90
5978;DHT22;3015;51.390;12.256;2022-08-19T06:13:47;20.00;1.00
5978;DHT22;3015;51.390;12.256;2022-08-19T06:16:17;20.00;1.00
5978;DHT22;3015;51.390;12.256;2022-08-19T06:18:52;20.10;99.90
5978;DHT22;3015;51.390;12.256;2022-08-19T06:21:23;20.10;1.00
5978;DHT22;3015;51.390;12.256;2022-08-19T06:23:49;20.10;99.90
5978;DHT22;3015;51.390;12.256;2022-08-19T06:26:17;20.10;1.00
5978;DHT22;3015;51.390;12.256;2022-08-19T06:28:44;20.10;48.00
5978;DHT22;3015;51.390;12.256;2022-08-19T06:31:21;20.20;1.00
5978;DHT22;3015;51.390;12.256;2022-08-19T06:33:48;20.20;99.90
5978;DHT22;3015;51.390;12.256;2022-08-19T06:36:21;20.20;1.00
5978;DHT22;3015;51.390;12.256;2022-08-19T06:38:47;20.20;1.00
5978;DHT22;3015;51.390;12.256;2022-08-19T06:41:13;20.20;3.00
5978;DHT22;3015;51.390;12.256;2022-08-19T06:43:38;20.20;1.00
5978;DHT22;3015;51.390;12.256;2022-08-19T06:46:10;20.20;99.90
5978;DHT22;3015;51.390;12.256;2022-08-19T06:48:37;20.20;99.90
5978;DHT22;3015;51.390;12.256;2022-08-19T06:51:02;20.20;99.90
5978;DHT22;3015;51.390;12.256;2022-08-19T06:53:29;20.30;99.90
5978;DHT22;3015;51.390;12.256;2022-08-19T06:55:54;20.20;1.00
5978;DHT22;3015;51.390;12.256;2022-08-19T06:58:25;20.20;99.90
5978;DHT22;3015;51.390;12.256;2022-08-19T07:00:51;20.10;61.40
5978;DHT22;3015;51.390;12.256;2022-08-19T07:03:17;20.10;1.00
5978;DHT22;3015;51.390;12.256;2022-08-19T07:05:43;20.10;1.00
5978;DHT22;3015;51.390;12.256;2022-08-19T07:08:09;20.00;99.90
5978;DHT22;3015;51.390;12.256;2022-08-19T07:10:35;20.00;99.90
5978;DHT22;3015;51.390;12.256;2022-08-19T07:13:02;20.00;99.90
5978;DHT22;3015;51.390;12.256;2022-08-19T07:15:29;20.00;99.90
5978;DHT22;3015;51.390;12.256;2022-08-19T07:17:56;20.00;99.90
5978;DHT22;3015;51.390;12.256;2022-08-19T07:20:21;20.00;1.00
5978;DHT22;3015;51.390;12.256;2022-08-19T07:22:47;20.00;4.20
5978;DHT22;3015;51.390;12.256;2022-08-19T07:25:13;20.00;99.90
5978;DHT22;3015;51.390;12.256;2022-08-19T07:27:39;19.90;99.90
5978;DHT22;3015;51.390;12.256;2022-08-19T07:30:05;19.90;99.90
5978;DHT22;3015;51.390;12.256;2022-08-19T07:32:31;19.90;1.00
5978;DHT22;3015;51.390;12.256;2022-08-19T07:34:57;19.90;1.00
5978;DHT22;3015;51.390;12.256;2022-08-19T07:37:25;19.90;1.00
5978;DHT22;3015;51.390;12.256;2022-08-19T07:39:53;20.00;99.90
5978;DHT22;3015;51.390;12.256;2022-08-19T07:42:19;20.00;99.90
5978;DHT22;3015;51.390;12.256;2022-08-19T07:44:46;20.00;1.00
5978;DHT22;3015;51.390;12.256;2022-08-19T07:47:12;20.10;99.90
5978;DHT22;3015;51.390;12.256;2022-08-19T07:49:41;20.00;1.00
5978;DHT22;3015;51.390;12.256;2022-08-19T07:52:09;20.00;99.90
5978;DHT22;3015;51.390;12.256;2022-08-19T07:54:36;20.00;1.00
5978;DHT22;3015;51.390;12.256;2022-08-19T07:57:04;20.00;1.00
5978;DHT22;3015;51.390;12.256;2022-08-19T07:59:29;20.00;99.90
5978;DHT22;3015;51.390;12.256;2022-08-19T08:01:56;20.00;97.80
5978;DHT22;3015;51.390;12.256;2022-08-19T08:04:22;20.10;13.80
5978;DHT22;3015;51.390;12.256;2022-08-19T08:07:07;20.10;99.90
5978;DHT22;3015;51.390;12.256;2022-08-19T08:09:52;20.20;99.90
5978;DHT22;3015;51.390;12.256;2022-08-19T08:12:30;20.20;99.90
5978;DHT22;3015;51.390;12.256;2022-08-19T08:14:59;20.20;90.50
5978;DHT22;3015;51.390;12.256;2022-08-19T08:17:29;20.20;1.00
5978;DHT22;3015;51.390;12.256;2022-08-19T08:19:55;20.30;1.00
5978;DHT22;3015;51.390;12.256;2022-08-19T08:22:22;20.30;99.90
5978;DHT22;3015;51.390;12.256;2022-08-19T08:25:10;20.30;99.90
5978;DHT22;3015;51.390;12.256;2022-08-19T08:27:37;20.30;1.00
5978;DHT22;3015;51.390;12.256;2022-08-19T08:30:06;20.40;60.10
5978;DHT22;3015;51.390;12.256;2022-08-19T08:32:37;20.40;1.00
5978;DHT22;3015;51.390;12.256;2022-08-19T08:35:08;20.40;1.00
5978;DHT22;3015;51.390;12.256;2022-08-19T08:37:35;20.40;99.00
5978;DHT22;3015;51.390;12.256;2022-08-19T08:40:16;20.50;1.00
5978;DHT22;3015;51.390;12.256;2022-08-19T08:42:54;20.50;99.90
5978;DHT22;3015;51.390;12.256;2022-08-19T08:45:24;20.60;99.90
5978;DHT22;3015;51.390;12.256;2022-08-19T08:47:52;20.60;99.90
5978;DHT22;3015;51.390;12.256;2022-08-19T08:50:23;20.60;1.00
5978;DHT22;3015;51.390;12.256;2022-08-19T08:52:52;20.50;1.00
5978;DHT22;3015;51.390;12.256;2022-08-19T08:55:24;20.40;99.90
5978;DHT22;3015;51.390;12.256;2022-08-19T08:57:57;20.40;99.90
5978;DHT22;3015;51.390;12.256;2022-08-19T09:00:28;20.40;90.00
5978;DHT22;3015;51.390;12.256;2022-08-19T09:02:55;20.50;1.00
5978;DHT22;3015;51.390;12.256;2022-08-19T09:05:23;20.50;1.00
5978;DHT22;3015;51.390;12.256;2022-08-19T09:08:07;20.60;1.00
5978;DHT22;3015;51.390;12.256;2022-08-19T09:10:44;20.70;1.00
5978;DHT22;3015;51.390;12.256;2022-08-19T09:18:49;21.00;99.90
5978;DHT22;3015;51.390;12.256;2022-08-19T09:21:21;21.10;1.00
5978;DHT22;3015;51.390;12.256;2022-08-19T09:23:48;21.20;96.60
5978;DHT22;3015;51.390;12.256;2022-08-19T09:26:19;21.20;99.90
5978;DHT22;3015;51.390;12.256;2022-08-19T09:28:47;21.30;83.70
5978;DHT22;3015;51.390;12.256;2022-08-19T09:31:15;21.30;99.90
5978;DHT22;3015;51.390;12.256;2022-08-19T09:33:40;21.40;1.00
5978;DHT22;3015;51.390;12.256;2022-08-19T09:36:12;21.30;1.00
5978;DHT22;3015;51.390;12.256;2022-08-19T09:38:38;21.40;99.90
5978;DHT22;3015;51.390;12.256;2022-08-19T09:41:11;21.40;99.90
5978;DHT22;3015;51.390;12.256;2022-08-19T09:43:40;21.40;99.90
5978;DHT22;3015;51.390;12.256;2022-08-19T09:46:07;21.40;97.60
5978;DHT22;3015;51.390;12.256;2022-08-19T09:48:38;21.50;99.90
5978;DHT22;3015;51.390;12.256;2022-08-19T09:51:12;21.50;1.00
5978;DHT22;3015;51.390;12.256;2022-08-19T09:53:42;21.70;1.00
5978;DHT22;3015;51.390;12.256;2022-08-19T09:56:08;21.60;9.70
5978;DHT22;3015;51.390;12.256;2022-08-19T09:58:35;21.60;99.90
5978;DHT22;3015;51.390;12.256;2022-08-19T10:01:02;21.50;99.90
5978;DHT22;3015;51.390;12.256;2022-08-19T10:03:29;21.50;99.90
5978;DHT22;3015;51.390;12.256;2022-08-19T10:05:56;21.60;99.90
5978;DHT22;3015;51.390;12.256;2022-08-19T10:08:35;21.70;63.50
5978;DHT22;3015;51.390;12.256;2022-08-19T10:11:02;21.70;76.30
5978;DHT22;3015;51.390;12.256;2022-08-19T10:13:31;21.80;99.90
5978;DHT22;3015;51.390;12.256;2022-08-19T10:16:05;21.90;1.00
5978;DHT22;3015;51.390;12.256;2022-08-19T10:18:31;21.80;1.00
5978;DHT22;3015;51.390;12.256;2022-08-19T10:21:11;21.80;1.00
5978;DHT22;3015;51.390;12.256;2022-08-19T10:23:38;21.90;1.00
5978;DHT22;3015;51.390;12.256;2022-08-19T10:26:05;22.00;1.00
5978;DHT22;3015;51.390;12.256;2022-08-19T10:28:33;22.20;1.00
5978;DHT22;3015;51.390;12.256;2022-08-19T10:31:04;22.10;99.90
5978;DHT22;3015;51.390;12.256;2022-08-19T10:33:30;22.20;1.00
5978;DHT22;3015;51.390;12.256;2022-08-19T10:36:07;22.40;99.90
5978;DHT22;3015;51.390;12.256;2022-08-19T10:38:34;22.50;99.90
5978;DHT22;3015;51.390;12.256;2022-08-19T10:41:12;22.50;99.90
5978;DHT22;3015;51.390;12.256;2022-08-19T10:43:39;22.60;50.20
5978;DHT22;3015;51.390;12.256;2022-08-19T10:46:10;22.60;1.00
5978;DHT22;3015;51.390;12.256;2022-08-19T10:48:36;22.70;1.00
5978;DHT22;3015;51.390;12.256;2022-08-19T10:51:02;22.90;1.00
5978;DHT22;3015;51.390;12.256;2022-08-19T10:53:47;22.90;1.00
5978;DHT22;3015;51.390;12.256;2022-08-19T10:56:13;22.80;1.00
5978;DHT22;3015;51.390;12.256;2022-08-19T10:58:57;22.80;1.00
5978;DHT22;3015;51.390;12.256;2022-08-19T11:01:24;22.90;1.00
5978;DHT22;3015;51.390;12.256;2022-08-19T11:03:50;23.10;1.00
5978;DHT22;3015;51.390;12.256;2022-08-19T11:06:16;23.20;1.00
5978;DHT22;3015;51.390;12.256;2022-08-19T11:08:42;23.20;1.00
5978;DHT22;3015;51.390;12.256;2022-08-19T11:11:11;23.10;1.00
5978;DHT22;3015;51.390;12.256;2022-08-19T11:13:39;23.30;1.00
5978;DHT22;3015;51.390;12.256;2022-08-19T11:16:16;23.60;1.00
5978;DHT22;3015;51.390;12.256;2022-08-19T11:18:46;23.80;1.00
5978;DHT22;3015;51.390;12.256;2022-08-19T11:21:15;23.80;99.90
5978;DHT22;3015;51.390;12.256;2022-08-19T11:23:43;24.00;99.90
5978;DHT22;3015;51.390;12.256;2022-08-19T11:26:09;23.80;99.90
5978;DHT22;3015;51.390;12.256;2022-08-19T11:28:35;23.80;99.90
5978;DHT22;3015;51.390;12.256;2022-08-19T11:31:01;23.90;99.90
5978;DHT22;3015;51.390;12.256;2022-08-19T11:33:29;23.70;99.90
5978;DHT22;3015;51.390;12.256;2022-08-19T11:35:58;23.90;99.90
5978;DHT22;3015;51.390;12.256;2022-08-19T11:38:25;24.00;99.90
5978;DHT22;3015;51.390;12.256;2022-08-19T11:41:02;24.00;99.90
5978;DHT22;3015;51.390;12.256;2022-08-19T11:43:28;24.00;99.90
5978;DHT22;3015;51.390;12.256;2022-08-19T11:45:55;24.00;99.90
5978;DHT22;3015;51.390;12.256;2022-08-19T11:48:22;24.00;99.90
5978;DHT22;3015;51.390;12.256;2022-08-19T11:50:52;23.90;99.90
5978;DHT22;3015;51.390;12.256;2022-08-19T11:53:19;24.00;99.90
5978;DHT22;3015;51.390;12.256;2022-08-19T11:55:46;24.00;99.90
5978;DHT22;3015;51.390;12.256;2022-08-19T11:58:13;23.90;99.90
5978;DHT22;3015;51.390;12.256;2022-08-19T12:00:40;23.80;99.90
5978;DHT22;3015;51.390;12.256;2022-08-19T12:03:06;23.90;99.90
5978;DHT22;3015;51.390;12.256;2022-08-19T12:05:31;24.00;99.90
5978;DHT22;3015;51.390;12.256;2022-08-19T12:07:57;24.10;99.90
5978;DHT22;3015;51.390;12.256;2022-08-19T12:10:23;24.20;99.90
5978;DHT22;3015;51.390;12.256;2022-08-19T12:12:48;24.20;99.90
5978;DHT22;3015;51.390;12.256;2022-08-19T12:15:14;24.40;99.90
5978;DHT22;3015;51.390;12.256;2022-08-19T12:17:41;24.70;99.90
5978;DHT22;3015;51.390;12.256;2022-08-19T12:20:09;24.90;99.90
5978;DHT22;3015;51.390;12.256;2022-08-19T12:22:36;25.50;99.90
5978;DHT22;3015;51.390;12.256;2022-08-19T12:25:03;26.40;99.90
5978;DHT22;3015;51.390;12.256;2022-08-19T12:27:30;26.80;99.90
5978;DHT22;3015;51.390;12.256;2022-08-19T12:29:55;27.30;99.90
5978;DHT22;3015;51.390;12.256;2022-08-19T12:32:22;27.80;99.90
5978;DHT22;3015;51.390;12.256;2022-08-19T12:34:48;28.10;99.90
5978;DHT22;3015;51.390;12.256;2022-08-19T12:37:13;28.40;99.90
5978;DHT22;3015;51.390;12.256;2022-08-19T12:39:41;29.00;99.90
5978;DHT22;3015;51.390;12.256;2022-08-19T12:42:11;29.40;99.90
5978;DHT22;3015;51.390;12.256;2022-08-19T12:44:38;29.60;99.90
5978;DHT22;3015;51.390;12.256;2022-08-19T12:47:05;29.40;99.90
5978;DHT22;3015;51.390;12.256;2022-08-19T12:49:32;29.50;99.90
5978;DHT22;3015;51.390;12.256;2022-08-19T12:52:03;29.60;99.90
5978;DHT22;3015;51.390;12.256;2022-08-19T12:54:29;29.50;99.90
5978;DHT22;3015;51.390;12.256;2022-08-19T12:56:56;28.90;99.90
5978;DHT22;3015;51.390;12.256;2022-08-19T12:59:22;28.80;99.90
5978;DHT22;3015;51.390;12.256;2022-08-19T13:01:48;29.40;99.90
5978;DHT22;3015;51.390;12.256;2022-08-19T13:04:13;30.30;99.90
5978;DHT22;3015;51.390;12.256;2022-08-19T13:06:39;30.40;99.90
5978;DHT22;3015;51.390;12.256;2022-08-19T13:09:05;30.50;99.90
5978;DHT22;3015;51.390;12.256;2022-08-19T13:11:31;30.30;99.90
5978;DHT22;3015;51.390;12.256;2022-08-19T13:13:59;29.90;99.90
5978;DHT22;3015;51.390;12.256;2022-08-19T13:16:25;29.60;99.90
5978;DHT22;3015;51.390;12.256;2022-08-19T13:18:53;29.40;99.90
5978;DHT22;3015;51.390;12.256;2022-08-19T13:21:22;29.00;99.90
5978;DHT22;3015;51.390;12.256;2022-08-19T13:23:48;28.90;99.90
5978;DHT22;3015;51.390;12.256;2022-08-19T13:26:14;28.50;99.90
5978;DHT22;3015;51.390;12.256;2022-08-19T13:28:41;28.30;99.90
5978;DHT22;3015;51.390;12.256;2022-08-19T13:31:27;28.00;99.90
5978;DHT22;3015;51.390;12.256;2022-08-19T13:34:12;27.90;99.90
5978;DHT22;3015;51.390;12.256;2022-08-19T13:36:38;27.60;99.90
5978;DHT22;3015;51.390;12.256;2022-08-19T13:39:05;27.20;99.90
5978;DHT22;3015;51.390;12.256;2022-08-19T13:41:32;27.00;99.90
5978;DHT22;3015;51.390;12.256;2022-08-19T13:43:59;26.60;99.90
5978;DHT22;3015;51.390;12.256;2022-08-19T13:46:24;26.60;99.90
5978;DHT22;3015;51.390;12.256;2022-08-19T13:48:50;26.50;99.90
5978;DHT22;3015;51.390;12.256;2022-08-19T13:51:17;26.10;99.90
5978;DHT22;3015;51.390;12.256;2022-08-19T13:53:43;25.90;99.90
5978;DHT22;3015;51.390;12.256;2022-08-19T13:56:11;25.60;99.90
5978;DHT22;3015;51.390;12.256;2022-08-19T13:58:37;25.40;99.90
5978;DHT22;3015;51.390;12.256;2022-08-19T14:01:04;25.20;99.90
5978;DHT22;3015;51.390;12.256;2022-08-19T14:03:30;25.10;99.90
5978;DHT22;3015;51.390;12.256;2022-08-19T14:05:56;25.10;99.90
5978;DHT22;3015;51.390;12.256;2022-08-19T14:08:22;24.90;99.90
5978;DHT22;3015;51.390;12.256;2022-08-19T14:10:48;24.90;99.90
5978;DHT22;3015;51.390;12.256;2022-08-19T14:13:17;24.60;99.90
5978;DHT22;3015;51.390;12.256;2022-08-19T14:15:44;24.40;99.90
5978;DHT22;3015;51.390;12.256;2022-08-19T14:18:10;24.20;99.90
5978;DHT22;3015;51.390;12.256;2022-08-19T14:20:36;24.20;99.90
5978;DHT22;3015;51.390;12.256;2022-08-19T14:23:02;24.30;99.90
5978;DHT22;3015;51.390;12.256;2022-08-19T14:25:29;24.30;99.90
5978;DHT22;3015;51.390;12.256;2022-08-19T14:27:56;24.20;99.90
5978;DHT22;3015;51.390;12.256;2022-08-19T14:30:28;24.20;99.90
5978;DHT22;3015;51.390;12.256;2022-08-19T14:32:55;24.10;99.90
5978;DHT22;3015;51.390;12.256;2022-08-19T14:35:22;24.00;99.90
5978;DHT22;3015;51.390;12.256;2022-08-19T14:37:49;23.90;99.90
5978;DHT22;3015;51.390;12.256;2022-08-19T14:40:17;23.80;99.90
5978;DHT22;3015;51.390;12.256;2022-08-19T14:42:45;23.80;99.90
5978;DHT22;3015;51.390;12.256;2022-08-19T14:45:12;23.80;99.90
5978;DHT22;3015;51.390;12.256;2022-08-19T14:47:38;23.90;99.90
5978;DHT22;3015;51.390;12.256;2022-08-19T14:50:07;24.00;99.90
5978;DHT22;3015;51.390;12.256;2022-08-19T14:52:33;24.30;99.90
5978;DHT22;3015;51.390;12.256;2022-08-19T14:54:59;24.50;99.90
5978;DHT22;3015;51.390;12.256;2022-08-19T14:57:25;24.50;99.90
5978;DHT22;3015;51.390;12.256;2022-08-19T14:59:50;24.20;99.90
5978;DHT22;3015;51.390;12.256;2022-08-19T15:02:16;24.30;99.90
5978;DHT22;3015;51.390;12.256;2022-08-19T15:04:42;24.30;99.90
5978;DHT22;3015;51.390;12.256;2022-08-19T15:07:08;24.10;99.90
5978;DHT22;3015;51.390;12.256;2022-08-19T15:09:34;24.10;99.90
5978;DHT22;3015;51.390;12.256;2022-08-19T15:12:00;24.20;99.90
5978;DHT22;3015;51.390;12.256;2022-08-19T15:14:27;24.50;99.90
5978;DHT22;3015;51.390;12.256;2022-08-19T15:16:57;24.60;99.90
5978;DHT22;3015;51.390;12.256;2022-08-19T15:19:23;24.60;99.90
5978;DHT22;3015;51.390;12.256;2022-08-19T15:21:49;24.70;99.90
5978;DHT22;3015;51.390;12.256;2022-08-19T15:24:14;24.80;99.90
5978;DHT22;3015;51.390;12.256;2022-08-19T15:26:41;24.70;99.90
5978;DHT22;3015;51.390;12.256;2022-08-19T15:29:08;24.70;99.90
5978;DHT22;3015;51.390;12.256;2022-08-19T15:31:33;24.40;99.90
5978;DHT22;3015;51.390;12.256;2022-08-19T15:34:02;24.20;99.90
5978;DHT22;3015;51.390;12.256;2022-08-19T15:36:28;24.10;99.90
5978;DHT22;3015;51.390;12.256;2022-08-19T15:38:55;24.00;99.90
5978;DHT22;3015;51.390;12.256;2022-08-19T15:41:26;24.00;99.90
5978;DHT22;3015;51.390;12.256;2022-08-19T15:43:56;24.00;99.90
5978;DHT22;3015;51.390;12.256;2022-08-19T15:46:25;24.00;99.90
5978;DHT22;3015;51.390;12.256;2022-08-19T15:48:52;24.00;99.90
5978;DHT22;3015;51.390;12.256;2022-08-19T15:51:18;24.10;99.90
5978;DHT22;3015;51.390;12.256;2022-08-19T15:53:44;24.00;99.90
5978;DHT22;3015;51.390;12.256;2022-08-19T15:56:10;23.80;99.90
5978;DHT22;3015;51.390;12.256;2022-08-19T15:58:36;23.70;99.90
5978;DHT22;3015;51.390;12.256;2022-08-19T16:01:21;23.60;99.90
5978;DHT22;3015;51.390;12.256;2022-08-19T16:04:13;23.40;99.90
5978;DHT22;3015;51.390;12.256;2022-08-19T16:06:59;23.40;99.90